<?xml version="1.0" encoding="UTF-8" standalone="no" ?>
<gpx xmlns="http://www.topografix.com/GPX/1/1" xmlns:xsi="http://www.w3.org/2001/XMLSchema-instance" xsi:schemaLocation="http://www.topografix.com/GPX/1/1 http://www.topografix.com/GPX/1/1/gpx.xsd" version="1.1" creator="VisuGPX - https://www.visugpx.com">
  <metadata>
    <name>Preit - Gardetta : 11 juil. 2020 09:05:05</name>
    <desc><![CDATA[Un tour dans le VAL MAIRA 2020 : Etape 3 en passant par le lago Nero]]></desc>
  </metadata>
  <trk>
    <name><![CDATA[Preit - Gardetta : 11 juil. 2020 09:05:05]]></name>
    <trkseg>
      <trkpt lat="44.43492" lon="7.05632">
        <ele>1557.22525948</ele>
        <time>2020-07-11T07:05:34Z</time>
      </trkpt>
      <trkpt lat="44.4347" lon="7.05578">
        <ele>1542.22311328</ele>
        <time>2020-07-11T07:06:34Z</time>
      </trkpt>
      <trkpt lat="44.43441" lon="7.05531">
        <ele>1550.22122728</ele>
        <time>2020-07-11T07:07:13Z</time>
      </trkpt>
      <trkpt lat="44.43404" lon="7.05497">
        <ele>1551.219883</ele>
        <time>2020-07-11T07:07:57Z</time>
      </trkpt>
      <trkpt lat="44.43368" lon="7.05465">
        <ele>1557.218612</ele>
        <time>2020-07-11T07:08:40Z</time>
      </trkpt>
      <trkpt lat="44.43326" lon="7.05445">
        <ele>1557.21779148</ele>
        <time>2020-07-11T07:09:27Z</time>
      </trkpt>
      <trkpt lat="44.43285" lon="7.05425">
        <ele>1570.21701048</ele>
        <time>2020-07-11T07:10:03Z</time>
      </trkpt>
      <trkpt lat="44.43247" lon="7.05397">
        <ele>1556.2158924</ele>
        <time>2020-07-11T07:10:46Z</time>
      </trkpt>
      <trkpt lat="44.43202" lon="7.05398">
        <ele>1555.2159362</ele>
        <time>2020-07-11T07:11:22Z</time>
      </trkpt>
      <trkpt lat="44.43159" lon="7.0539">
        <ele>1549.21558624</ele>
        <time>2020-07-11T07:13:02Z</time>
      </trkpt>
      <trkpt lat="44.43114" lon="7.05389">
        <ele>1552.21557704</ele>
        <time>2020-07-11T07:13:35Z</time>
      </trkpt>
      <trkpt lat="44.4307" lon="7.0538">
        <ele>1563.2152084</ele>
        <time>2020-07-11T07:15:37Z</time>
      </trkpt>
      <trkpt lat="44.43028" lon="7.05371">
        <ele>1571.2148206</ele>
        <time>2020-07-11T07:16:18Z</time>
      </trkpt>
      <trkpt lat="44.42983" lon="7.05378">
        <ele>1568.21510652</ele>
        <time>2020-07-11T07:16:58Z</time>
      </trkpt>
      <trkpt lat="44.42939" lon="7.0538">
        <ele>1580.21520296</ele>
        <time>2020-07-11T07:17:46Z</time>
      </trkpt>
      <trkpt lat="44.42896" lon="7.05368">
        <ele>1583.21473748</ele>
        <time>2020-07-11T07:18:35Z</time>
      </trkpt>
      <trkpt lat="44.42851" lon="7.05364">
        <ele>1589.21454108</ele>
        <time>2020-07-11T07:19:22Z</time>
      </trkpt>
      <trkpt lat="44.42807" lon="7.05368">
        <ele>1603.21473504</ele>
        <time>2020-07-11T07:20:09Z</time>
      </trkpt>
      <trkpt lat="44.42766" lon="7.05349">
        <ele>1605.21395148</ele>
        <time>2020-07-11T07:20:50Z</time>
      </trkpt>
      <trkpt lat="44.4274" lon="7.05306">
        <ele>1609.21224844</ele>
        <time>2020-07-11T07:21:38Z</time>
      </trkpt>
      <trkpt lat="44.4272" lon="7.0525">
        <ele>1614.21001028</ele>
        <time>2020-07-11T07:22:24Z</time>
      </trkpt>
      <trkpt lat="44.42687" lon="7.05214">
        <ele>1610.20857488</ele>
        <time>2020-07-11T07:23:15Z</time>
      </trkpt>
      <trkpt lat="44.42646" lon="7.05195">
        <ele>1607.20778208</ele>
        <time>2020-07-11T07:24:07Z</time>
      </trkpt>
      <trkpt lat="44.42604" lon="7.05185">
        <ele>1618.20738504</ele>
        <time>2020-07-11T07:24:54Z</time>
      </trkpt>
      <trkpt lat="44.4256" lon="7.05183">
        <ele>1618.20733396</ele>
        <time>2020-07-11T07:25:34Z</time>
      </trkpt>
      <trkpt lat="44.42518" lon="7.05167">
        <ele>1629.20668932</ele>
        <time>2020-07-11T07:26:25Z</time>
      </trkpt>
      <trkpt lat="44.42474" lon="7.05165">
        <ele>1630.20657912</ele>
        <time>2020-07-11T07:27:08Z</time>
      </trkpt>
      <trkpt lat="44.42436" lon="7.05137">
        <ele>1638.2054608</ele>
        <time>2020-07-11T07:27:59Z</time>
      </trkpt>
      <trkpt lat="44.42403" lon="7.05093">
        <ele>1648.20373344</ele>
        <time>2020-07-11T07:28:51Z</time>
      </trkpt>
      <trkpt lat="44.42365" lon="7.05062">
        <ele>1662.20249676</ele>
        <time>2020-07-11T07:29:49Z</time>
      </trkpt>
      <trkpt lat="44.42326" lon="7.05052">
        <ele>1664.20207048</ele>
        <time>2020-07-11T07:30:19Z</time>
      </trkpt>
      <trkpt lat="44.42283" lon="7.05038">
        <ele>1652.20151768</ele>
        <time>2020-07-11T07:31:16Z</time>
      </trkpt>
      <trkpt lat="44.42249" lon="7.04997">
        <ele>1651.1998948</ele>
        <time>2020-07-11T07:32:10Z</time>
      </trkpt>
      <trkpt lat="44.42219" lon="7.04955">
        <ele>1655.19818204</ele>
        <time>2020-07-11T07:32:54Z</time>
      </trkpt>
      <trkpt lat="44.42178" lon="7.04931">
        <ele>1664.19721816</ele>
        <time>2020-07-11T07:33:32Z</time>
      </trkpt>
      <trkpt lat="44.42214" lon="7.04967">
        <ele>1656.19869228</ele>
        <time>2020-07-11T07:36:44Z</time>
      </trkpt>
      <trkpt lat="44.42231" lon="7.05025">
        <ele>1659.20100312</ele>
        <time>2020-07-11T07:37:28Z</time>
      </trkpt>
      <trkpt lat="44.42242" lon="7.05086">
        <ele>1662.20341832</ele>
        <time>2020-07-11T07:38:12Z</time>
      </trkpt>
      <trkpt lat="44.42269" lon="7.05134">
        <ele>1667.20537688</ele>
        <time>2020-07-11T07:38:59Z</time>
      </trkpt>
      <trkpt lat="44.423" lon="7.05178">
        <ele>1674.2071262</ele>
        <time>2020-07-11T07:39:42Z</time>
      </trkpt>
      <trkpt lat="44.4234" lon="7.05208">
        <ele>1676.20833272</ele>
        <time>2020-07-11T07:40:35Z</time>
      </trkpt>
      <trkpt lat="44.42347" lon="7.0527">
        <ele>1681.21080164</ele>
        <time>2020-07-11T07:41:43Z</time>
      </trkpt>
      <trkpt lat="44.42372" lon="7.0532">
        <ele>1684.21281276</ele>
        <time>2020-07-11T07:42:29Z</time>
      </trkpt>
      <trkpt lat="44.42382" lon="7.05381">
        <ele>1682.21522108</ele>
        <time>2020-07-11T07:43:18Z</time>
      </trkpt>
      <trkpt lat="44.42392" lon="7.0544">
        <ele>1691.21758664</ele>
        <time>2020-07-11T07:43:55Z</time>
      </trkpt>
      <trkpt lat="44.42426" lon="7.0548">
        <ele>1701.219199</ele>
        <time>2020-07-11T07:44:47Z</time>
      </trkpt>
      <trkpt lat="44.42454" lon="7.05528">
        <ele>1703.22112288</ele>
        <time>2020-07-11T07:45:33Z</time>
      </trkpt>
      <trkpt lat="44.42484" lon="7.05574">
        <ele>1706.22297784</ele>
        <time>2020-07-11T07:46:24Z</time>
      </trkpt>
      <trkpt lat="44.42513" lon="7.0562">
        <ele>1707.22480404</ele>
        <time>2020-07-11T07:47:13Z</time>
      </trkpt>
      <trkpt lat="44.42522" lon="7.05681">
        <ele>1713.2272274</ele>
        <time>2020-07-11T07:48:03Z</time>
      </trkpt>
      <trkpt lat="44.42544" lon="7.05732">
        <ele>1719.22929548</ele>
        <time>2020-07-11T07:48:44Z</time>
      </trkpt>
      <trkpt lat="44.42546" lon="7.05795">
        <ele>1705.23178964</ele>
        <time>2020-07-11T07:49:31Z</time>
      </trkpt>
      <trkpt lat="44.42537" lon="7.05856">
        <ele>1704.2342448</ele>
        <time>2020-07-11T07:51:27Z</time>
      </trkpt>
      <trkpt lat="44.42581" lon="7.05861">
        <ele>1718.23442804</ele>
        <time>2020-07-11T07:52:49Z</time>
      </trkpt>
      <trkpt lat="44.42623" lon="7.05841">
        <ele>1724.23362604</ele>
        <time>2020-07-11T07:53:42Z</time>
      </trkpt>
      <trkpt lat="44.42662" lon="7.05871">
        <ele>1734.23482068</ele>
        <time>2020-07-11T07:54:29Z</time>
      </trkpt>
      <trkpt lat="44.4262" lon="7.05892">
        <ele>1730.23565872</ele>
        <time>2020-07-11T07:55:34Z</time>
      </trkpt>
      <trkpt lat="44.42582" lon="7.05923">
        <ele>1736.23692676</ele>
        <time>2020-07-11T07:56:20Z</time>
      </trkpt>
      <trkpt lat="44.42559" lon="7.05976">
        <ele>1744.23903388</ele>
        <time>2020-07-11T07:57:07Z</time>
      </trkpt>
      <trkpt lat="44.42527" lon="7.06019">
        <ele>1750.24076576</ele>
        <time>2020-07-11T07:57:59Z</time>
      </trkpt>
      <trkpt lat="44.42487" lon="7.06046">
        <ele>1756.24183136</ele>
        <time>2020-07-11T07:58:43Z</time>
      </trkpt>
      <trkpt lat="44.42445" lon="7.0607">
        <ele>1761.242791</ele>
        <time>2020-07-11T08:00:08Z</time>
      </trkpt>
      <trkpt lat="44.42423" lon="7.06124">
        <ele>1753.24494456</ele>
        <time>2020-07-11T08:00:56Z</time>
      </trkpt>
      <trkpt lat="44.42409" lon="7.0618">
        <ele>1763.24717968</ele>
        <time>2020-07-11T08:01:43Z</time>
      </trkpt>
      <trkpt lat="44.42395" lon="7.06238">
        <ele>1775.24952164</ele>
        <time>2020-07-11T08:02:32Z</time>
      </trkpt>
      <trkpt lat="44.42395" lon="7.06301">
        <ele>1774.25203632</ele>
        <time>2020-07-11T08:03:23Z</time>
      </trkpt>
      <trkpt lat="44.42384" lon="7.06361">
        <ele>1772.25444832</ele>
        <time>2020-07-11T08:04:10Z</time>
      </trkpt>
      <trkpt lat="44.4236" lon="7.06413">
        <ele>1787.25652408</ele>
        <time>2020-07-11T08:04:53Z</time>
      </trkpt>
      <trkpt lat="44.42324" lon="7.0645">
        <ele>1792.2580136</ele>
        <time>2020-07-11T08:05:45Z</time>
      </trkpt>
      <trkpt lat="44.42282" lon="7.06469">
        <ele>1802.25875876</ele>
        <time>2020-07-11T08:06:34Z</time>
      </trkpt>
      <trkpt lat="44.42237" lon="7.06475">
        <ele>1794.25898516</ele>
        <time>2020-07-11T08:07:23Z</time>
      </trkpt>
      <trkpt lat="44.42208" lon="7.06521">
        <ele>1819.26084652</ele>
        <time>2020-07-11T08:10:03Z</time>
      </trkpt>
      <trkpt lat="44.42173" lon="7.06558">
        <ele>1817.26232396</ele>
        <time>2020-07-11T08:10:57Z</time>
      </trkpt>
      <trkpt lat="44.42136" lon="7.06593">
        <ele>1827.26371676</ele>
        <time>2020-07-11T08:11:41Z</time>
      </trkpt>
      <trkpt lat="44.42111" lon="7.06645">
        <ele>1818.26581544</ele>
        <time>2020-07-11T08:12:32Z</time>
      </trkpt>
      <trkpt lat="44.42094" lon="7.06703">
        <ele>1830.26810684</ele>
        <time>2020-07-11T08:13:11Z</time>
      </trkpt>
      <trkpt lat="44.4206" lon="7.06741">
        <ele>1841.26965276</ele>
        <time>2020-07-11T08:13:52Z</time>
      </trkpt>
      <trkpt lat="44.42032" lon="7.06788">
        <ele>1843.2715312</ele>
        <time>2020-07-11T08:14:40Z</time>
      </trkpt>
      <trkpt lat="44.41999" lon="7.06826">
        <ele>1835.27305016</ele>
        <time>2020-07-11T08:15:23Z</time>
      </trkpt>
      <trkpt lat="44.41962" lon="7.06861">
        <ele>1846.2744262</ele>
        <time>2020-07-11T08:16:07Z</time>
      </trkpt>
      <trkpt lat="44.41918" lon="7.06854">
        <ele>1847.27415764</ele>
        <time>2020-07-11T08:16:44Z</time>
      </trkpt>
      <trkpt lat="44.41877" lon="7.06832">
        <ele>1842.27327804</ele>
        <time>2020-07-11T08:17:29Z</time>
      </trkpt>
      <trkpt lat="44.41919" lon="7.06816">
        <ele>1855.27261828</ele>
        <time>2020-07-11T08:18:21Z</time>
      </trkpt>
      <trkpt lat="44.41939" lon="7.0676">
        <ele>1855.27038536</ele>
        <time>2020-07-11T08:19:12Z</time>
      </trkpt>
      <trkpt lat="44.41948" lon="7.06699">
        <ele>1866.26794276</ele>
        <time>2020-07-11T08:20:04Z</time>
      </trkpt>
      <trkpt lat="44.41907" lon="7.06723">
        <ele>1873.26891376</ele>
        <time>2020-07-11T08:21:31Z</time>
      </trkpt>
      <trkpt lat="44.41863" lon="7.06734">
        <ele>1871.26937204</ele>
        <time>2020-07-11T08:22:24Z</time>
      </trkpt>
      <trkpt lat="44.41819" lon="7.06738">
        <ele>1896.2695138</ele>
        <time>2020-07-11T08:23:23Z</time>
      </trkpt>
      <trkpt lat="44.41777" lon="7.06761">
        <ele>1890.27043356</ele>
        <time>2020-07-11T08:24:26Z</time>
      </trkpt>
      <trkpt lat="44.41734" lon="7.06776">
        <ele>1900.2710404</ele>
        <time>2020-07-11T08:25:26Z</time>
      </trkpt>
      <trkpt lat="44.41693" lon="7.06799">
        <ele>1915.27196624</ele>
        <time>2020-07-11T08:26:17Z</time>
      </trkpt>
      <trkpt lat="44.41655" lon="7.06832">
        <ele>1929.27329192</ele>
        <time>2020-07-11T08:27:27Z</time>
      </trkpt>
      <trkpt lat="44.41611" lon="7.06841">
        <ele>1926.27363296</ele>
        <time>2020-07-11T08:28:30Z</time>
      </trkpt>
      <trkpt lat="44.41572" lon="7.0687">
        <ele>1932.27481664</ele>
        <time>2020-07-11T08:29:40Z</time>
      </trkpt>
      <trkpt lat="44.41529" lon="7.06888">
        <ele>1940.27551724</ele>
        <time>2020-07-11T08:30:43Z</time>
      </trkpt>
      <trkpt lat="44.41553" lon="7.06835">
        <ele>1963.2733948</ele>
        <time>2020-07-11T08:33:06Z</time>
      </trkpt>
      <trkpt lat="44.41511" lon="7.06856">
        <ele>1969.27424352</ele>
        <time>2020-07-11T08:34:11Z</time>
      </trkpt>
      <trkpt lat="44.41475" lon="7.06893">
        <ele>1979.27570336</ele>
        <time>2020-07-11T08:35:05Z</time>
      </trkpt>
      <trkpt lat="44.41472" lon="7.06955">
        <ele>1976.27819724</ele>
        <time>2020-07-11T08:36:26Z</time>
      </trkpt>
      <trkpt lat="44.41438" lon="7.06996">
        <ele>1978.27981868</ele>
        <time>2020-07-11T08:54:52Z</time>
      </trkpt>
      <trkpt lat="44.41402" lon="7.0703">
        <ele>1981.28120948</ele>
        <time>2020-07-11T08:55:31Z</time>
      </trkpt>
      <trkpt lat="44.4137" lon="7.07069">
        <ele>1994.28274556</ele>
        <time>2020-07-11T08:56:26Z</time>
      </trkpt>
      <trkpt lat="44.41336" lon="7.07108">
        <ele>1992.2843248</ele>
        <time>2020-07-11T08:57:15Z</time>
      </trkpt>
      <trkpt lat="44.41305" lon="7.07151">
        <ele>2009.28605472</ele>
        <time>2020-07-11T08:58:12Z</time>
      </trkpt>
      <trkpt lat="44.41264" lon="7.07172">
        <ele>2017.286893</ele>
        <time>2020-07-11T08:59:00Z</time>
      </trkpt>
      <trkpt lat="44.41221" lon="7.0718">
        <ele>2022.28719808</ele>
        <time>2020-07-11T08:59:57Z</time>
      </trkpt>
      <trkpt lat="44.41183" lon="7.07148">
        <ele>2024.28593084</ele>
        <time>2020-07-11T09:00:43Z</time>
      </trkpt>
      <trkpt lat="44.41138" lon="7.07149">
        <ele>2036.28594068</ele>
        <time>2020-07-11T09:01:44Z</time>
      </trkpt>
      <trkpt lat="44.41097" lon="7.07173">
        <ele>2044.28690952</ele>
        <time>2020-07-11T09:02:39Z</time>
      </trkpt>
      <trkpt lat="44.41058" lon="7.07144">
        <ele>2040.28576724</ele>
        <time>2020-07-11T09:03:59Z</time>
      </trkpt>
      <trkpt lat="44.41055" lon="7.07084">
        <ele>2059.28334476</ele>
        <time>2020-07-11T09:05:16Z</time>
      </trkpt>
      <trkpt lat="44.41075" lon="7.0703">
        <ele>2060.28118076</ele>
        <time>2020-07-11T09:06:01Z</time>
      </trkpt>
      <trkpt lat="44.41105" lon="7.06984">
        <ele>2061.27936264</ele>
        <time>2020-07-11T09:07:02Z</time>
      </trkpt>
      <trkpt lat="44.41149" lon="7.06996">
        <ele>2051.2798452</ele>
        <time>2020-07-11T09:08:31Z</time>
      </trkpt>
      <trkpt lat="44.41193" lon="7.06983">
        <ele>2060.27930636</ele>
        <time>2020-07-11T09:09:01Z</time>
      </trkpt>
      <trkpt lat="44.41227" lon="7.06945">
        <ele>2016.27777908</ele>
        <time>2020-07-11T09:09:48Z</time>
      </trkpt>
      <trkpt lat="44.41273" lon="7.06943">
        <ele>2052.277702</ele>
        <time>2020-07-11T09:10:18Z</time>
      </trkpt>
      <trkpt lat="44.4131" lon="7.0691">
        <ele>2060.27641364</ele>
        <time>2020-07-11T09:10:53Z</time>
      </trkpt>
      <trkpt lat="44.41334" lon="7.06858">
        <ele>2061.27429908</ele>
        <time>2020-07-11T09:11:28Z</time>
      </trkpt>
      <trkpt lat="44.41365" lon="7.06807">
        <ele>2055.27228572</ele>
        <time>2020-07-11T09:11:57Z</time>
      </trkpt>
      <trkpt lat="44.41359" lon="7.06749">
        <ele>2046.26994872</ele>
        <time>2020-07-11T09:12:34Z</time>
      </trkpt>
      <trkpt lat="44.41382" lon="7.06696">
        <ele>2048.2678274</ele>
        <time>2020-07-11T09:13:31Z</time>
      </trkpt>
      <trkpt lat="44.41404" lon="7.06642">
        <ele>2057.26566208</ele>
        <time>2020-07-11T09:14:28Z</time>
      </trkpt>
      <trkpt lat="44.41432" lon="7.06594">
        <ele>2068.26376876</ele>
        <time>2020-07-11T09:15:56Z</time>
      </trkpt>
      <trkpt lat="44.41408" lon="7.06542">
        <ele>2072.26169496</ele>
        <time>2020-07-11T09:16:51Z</time>
      </trkpt>
      <trkpt lat="44.41416" lon="7.06481">
        <ele>2084.25923088</ele>
        <time>2020-07-11T09:18:18Z</time>
      </trkpt>
      <trkpt lat="44.41402" lon="7.06422">
        <ele>2094.25685872</ele>
        <time>2020-07-11T09:19:43Z</time>
      </trkpt>
      <trkpt lat="44.41358" lon="7.06416">
        <ele>2107.2566486</ele>
        <time>2020-07-11T09:21:07Z</time>
      </trkpt>
      <trkpt lat="44.41314" lon="7.06423">
        <ele>2112.25690296</ele>
        <time>2020-07-11T09:22:08Z</time>
      </trkpt>
      <trkpt lat="44.4127" lon="7.06433">
        <ele>2122.25732976</ele>
        <time>2020-07-11T09:23:24Z</time>
      </trkpt>
      <trkpt lat="44.41227" lon="7.06422">
        <ele>2127.25688172</ele>
        <time>2020-07-11T09:24:06Z</time>
      </trkpt>
      <trkpt lat="44.41188" lon="7.06393">
        <ele>2127.2557304</ele>
        <time>2020-07-11T09:24:53Z</time>
      </trkpt>
      <trkpt lat="44.41176" lon="7.06333">
        <ele>2129.25332544</ele>
        <time>2020-07-11T09:26:16Z</time>
      </trkpt>
      <trkpt lat="44.41197" lon="7.06278">
        <ele>2142.25113236</ele>
        <time>2020-07-11T09:27:21Z</time>
      </trkpt>
      <trkpt lat="44.412" lon="7.06217">
        <ele>2143.2486598</ele>
        <time>2020-07-11T09:28:24Z</time>
      </trkpt>
      <trkpt lat="44.4121" lon="7.06155">
        <ele>2152.24621068</ele>
        <time>2020-07-11T09:30:18Z</time>
      </trkpt>
      <trkpt lat="44.41183" lon="7.06106">
        <ele>2173.244229</ele>
        <time>2020-07-11T09:32:18Z</time>
      </trkpt>
      <trkpt lat="44.4114" lon="7.06097">
        <ele>2187.24389624</ele>
        <time>2020-07-11T09:33:49Z</time>
      </trkpt>
      <trkpt lat="44.41109" lon="7.06053">
        <ele>2204.24209944</ele>
        <time>2020-07-11T09:34:55Z</time>
      </trkpt>
      <trkpt lat="44.41066" lon="7.0606">
        <ele>2221.24240516</ele>
        <time>2020-07-11T09:36:47Z</time>
      </trkpt>
      <trkpt lat="44.41026" lon="7.06081">
        <ele>2240.24324664</ele>
        <time>2020-07-11T09:38:34Z</time>
      </trkpt>
      <trkpt lat="44.40996" lon="7.06127">
        <ele>2245.2450892</ele>
        <time>2020-07-11T09:39:21Z</time>
      </trkpt>
      <trkpt lat="44.40969" lon="7.06177">
        <ele>2243.24707092</ele>
        <time>2020-07-11T09:40:21Z</time>
      </trkpt>
      <trkpt lat="44.40941" lon="7.06225">
        <ele>2244.24899724</ele>
        <time>2020-07-11T09:41:16Z</time>
      </trkpt>
      <trkpt lat="44.40939" lon="7.06288">
        <ele>2263.25150396</ele>
        <time>2020-07-11T09:42:35Z</time>
      </trkpt>
      <trkpt lat="44.40923" lon="7.06345">
        <ele>2240.25381516</ele>
        <time>2020-07-11T09:45:34Z</time>
      </trkpt>
      <trkpt lat="44.40932" lon="7.06407">
        <ele>2244.25626808</ele>
        <time>2020-07-11T09:46:38Z</time>
      </trkpt>
      <trkpt lat="44.40901" lon="7.06451">
        <ele>2240.25804696</ele>
        <time>2020-07-11T09:47:19Z</time>
      </trkpt>
      <trkpt lat="44.40856" lon="7.0646">
        <ele>2244.25838216</ele>
        <time>2020-07-11T09:47:58Z</time>
      </trkpt>
      <trkpt lat="44.40817" lon="7.06459">
        <ele>2241.25837188</ele>
        <time>2020-07-11T09:55:05Z</time>
      </trkpt>
      <trkpt lat="44.40817" lon="7.06459">
        <ele>2241.25837188</ele>
        <time>2020-07-11T09:55:06Z</time>
      </trkpt>
      <trkpt lat="44.40837" lon="7.06423">
        <ele>2232.2569144</ele>
        <time>2020-07-11T11:00:05Z</time>
      </trkpt>
      <trkpt lat="44.40794" lon="7.06408">
        <ele>2238.25631784</ele>
        <time>2020-07-11T11:03:01Z</time>
      </trkpt>
      <trkpt lat="44.4076" lon="7.06368">
        <ele>2248.2547198</ele>
        <time>2020-07-11T11:04:36Z</time>
      </trkpt>
      <trkpt lat="44.40742" lon="7.06312">
        <ele>2257.25246096</ele>
        <time>2020-07-11T11:05:51Z</time>
      </trkpt>
      <trkpt lat="44.40734" lon="7.06251">
        <ele>2263.25003132</ele>
        <time>2020-07-11T11:06:55Z</time>
      </trkpt>
      <trkpt lat="44.40718" lon="7.06195">
        <ele>2266.24778148</ele>
        <time>2020-07-11T11:08:01Z</time>
      </trkpt>
      <trkpt lat="44.40689" lon="7.06147">
        <ele>2274.24586284</ele>
        <time>2020-07-11T11:09:19Z</time>
      </trkpt>
      <trkpt lat="44.40666" lon="7.06096">
        <ele>2294.24384872</ele>
        <time>2020-07-11T11:12:02Z</time>
      </trkpt>
      <trkpt lat="44.40657" lon="7.06036">
        <ele>2292.24143608</ele>
        <time>2020-07-11T11:12:34Z</time>
      </trkpt>
      <trkpt lat="44.40621" lon="7.06003">
        <ele>2290.2401132</ele>
        <time>2020-07-11T11:16:39Z</time>
      </trkpt>
      <trkpt lat="44.40577" lon="7.06005">
        <ele>2286.24017976</ele>
        <time>2020-07-11T11:17:32Z</time>
      </trkpt>
      <trkpt lat="44.40549" lon="7.05956">
        <ele>2283.23822196</ele>
        <time>2020-07-11T11:18:36Z</time>
      </trkpt>
      <trkpt lat="44.40545" lon="7.05894">
        <ele>2282.23575932</ele>
        <time>2020-07-11T11:19:24Z</time>
      </trkpt>
      <trkpt lat="44.40514" lon="7.05853">
        <ele>2269.23411236</ele>
        <time>2020-07-11T11:20:13Z</time>
      </trkpt>
      <trkpt lat="44.40471" lon="7.05835">
        <ele>2264.23339436</ele>
        <time>2020-07-11T11:21:06Z</time>
      </trkpt>
      <trkpt lat="44.40433" lon="7.05814">
        <ele>2254.23254972</ele>
        <time>2020-07-11T11:23:04Z</time>
      </trkpt>
      <trkpt lat="44.40401" lon="7.0577">
        <ele>2248.23077936</ele>
        <time>2020-07-11T11:24:12Z</time>
      </trkpt>
      <trkpt lat="44.40391" lon="7.05709">
        <ele>2248.22835236</ele>
        <time>2020-07-11T11:25:07Z</time>
      </trkpt>
      <trkpt lat="44.40379" lon="7.05649">
        <ele>2246.2259564</ele>
        <time>2020-07-11T11:26:14Z</time>
      </trkpt>
      <trkpt lat="44.40364" lon="7.05591">
        <ele>2245.22363724</ele>
        <time>2020-07-11T11:27:26Z</time>
      </trkpt>
      <trkpt lat="44.40352" lon="7.05533">
        <ele>2244.22130208</ele>
        <time>2020-07-11T11:28:12Z</time>
      </trkpt>
      <trkpt lat="44.40334" lon="7.05478">
        <ele>2236.21910544</ele>
        <time>2020-07-11T11:29:48Z</time>
      </trkpt>
      <trkpt lat="44.40325" lon="7.05417">
        <ele>2226.21666832</ele>
        <time>2020-07-11T11:30:43Z</time>
      </trkpt>
      <trkpt lat="44.4032" lon="7.05355">
        <ele>2218.21421548</ele>
        <time>2020-07-11T11:32:32Z</time>
      </trkpt>
      <trkpt lat="44.40324" lon="7.05293">
        <ele>2198.2117366</ele>
        <time>2020-07-11T11:34:11Z</time>
      </trkpt>
      <trkpt lat="44.40305" lon="7.05237">
        <ele>2183.20948676</ele>
        <time>2020-07-11T11:35:33Z</time>
      </trkpt>
      <trkpt lat="44.40311" lon="7.05175">
        <ele>2164.20701424</ele>
        <time>2020-07-11T11:38:02Z</time>
      </trkpt>
      <trkpt lat="44.4031" lon="7.05113">
        <ele>2154.20450924</ele>
        <time>2020-07-11T11:40:08Z</time>
      </trkpt>
      <trkpt lat="44.403" lon="7.05052">
        <ele>2145.20208076</ele>
        <time>2020-07-11T11:40:47Z</time>
      </trkpt>
      <trkpt lat="44.40296" lon="7.04991">
        <ele>2149.19964364</ele>
        <time>2020-07-11T11:41:28Z</time>
      </trkpt>
      <trkpt lat="44.40292" lon="7.0493">
        <ele>2154.19721668</ele>
        <time>2020-07-11T11:42:10Z</time>
      </trkpt>
      <trkpt lat="44.40275" lon="7.04872">
        <ele>2145.1948834</ele>
        <time>2020-07-11T11:43:09Z</time>
      </trkpt>
      <trkpt lat="44.40246" lon="7.04825">
        <ele>2145.19301128</ele>
        <time>2020-07-11T11:43:47Z</time>
      </trkpt>
      <trkpt lat="44.40218" lon="7.04776">
        <ele>2147.19104804</ele>
        <time>2020-07-11T11:55:45Z</time>
      </trkpt>
      <trkpt lat="44.40135" lon="7.04802">
        <ele>2134.19207792</ele>
        <time>2020-07-11T11:57:27Z</time>
      </trkpt>
      <trkpt lat="44.4009" lon="7.04798">
        <ele>2121.19191504</ele>
        <time>2020-07-11T11:59:20Z</time>
      </trkpt>
      <trkpt lat="44.40061" lon="7.0475">
        <ele>2111.18999796</ele>
        <time>2020-07-11T12:00:25Z</time>
      </trkpt>
      <trkpt lat="44.40019" lon="7.0473">
        <ele>2126.18920796</ele>
        <time>2020-07-11T12:01:33Z</time>
      </trkpt>
      <trkpt lat="44.40058" lon="7.04703">
        <ele>2113.18810816</ele>
        <time>2020-07-11T12:04:34Z</time>
      </trkpt>
      <trkpt lat="44.40071" lon="7.04647">
        <ele>2085.18588732</ele>
        <time>2020-07-11T12:06:34Z</time>
      </trkpt>
      <trkpt lat="44.40087" lon="7.04589">
        <ele>2080.18353948</ele>
        <time>2020-07-11T12:08:18Z</time>
      </trkpt>
      <trkpt lat="44.40104" lon="7.04532">
        <ele>2069.18128388</ele>
        <time>2020-07-11T12:09:04Z</time>
      </trkpt>
      <trkpt lat="44.40145" lon="7.04512">
        <ele>2053.1804862</ele>
        <time>2020-07-11T12:10:22Z</time>
      </trkpt>
      <trkpt lat="44.40119" lon="7.04462">
        <ele>2046.17848732</ele>
        <time>2020-07-11T12:11:10Z</time>
      </trkpt>
      <trkpt lat="44.40131" lon="7.04402">
        <ele>2039.1760936</ele>
        <time>2020-07-11T12:12:06Z</time>
      </trkpt>
      <trkpt lat="44.40135" lon="7.0434">
        <ele>2033.17359648</ele>
        <time>2020-07-11T12:12:44Z</time>
      </trkpt>
      <trkpt lat="44.40114" lon="7.04285">
        <ele>2030.17139596</ele>
        <time>2020-07-11T12:13:27Z</time>
      </trkpt>
      <trkpt lat="44.40131" lon="7.04227">
        <ele>2030.16907844</ele>
        <time>2020-07-11T12:14:10Z</time>
      </trkpt>
      <trkpt lat="44.40148" lon="7.04196">
        <ele>2031.1678186</ele>
        <time>2020-07-11T12:14:38Z</time>
      </trkpt>
      <trkpt lat="44.40169" lon="7.0414">
        <ele>2032.16559816</ele>
        <time>2020-07-11T12:15:19Z</time>
      </trkpt>
      <trkpt lat="44.40201" lon="7.04096">
        <ele>2030.16385208</ele>
        <time>2020-07-11T12:16:15Z</time>
      </trkpt>
      <trkpt lat="44.40243" lon="7.0408">
        <ele>2041.1631924</ele>
        <time>2020-07-11T12:17:17Z</time>
      </trkpt>
      <trkpt lat="44.40287" lon="7.04079">
        <ele>2053.16317092</ele>
        <time>2020-07-11T12:18:08Z</time>
      </trkpt>
      <trkpt lat="44.40331" lon="7.04086">
        <ele>2053.16344572</ele>
        <time>2020-07-11T12:19:42Z</time>
      </trkpt>
      <trkpt lat="44.40374" lon="7.04094">
        <ele>2069.16374736</ele>
        <time>2020-07-11T12:24:08Z</time>
      </trkpt>
      <trkpt lat="44.40399" lon="7.04145">
        <ele>2060.16581532</ele>
        <time>2020-07-11T12:27:49Z</time>
      </trkpt>
      <trkpt lat="44.40429" lon="7.04099">
        <ele>2076.16394488</ele>
        <time>2020-07-11T12:29:35Z</time>
      </trkpt>
      <trkpt lat="44.40424" lon="7.04037">
        <ele>2084.16148228</ele>
        <time>2020-07-11T12:30:37Z</time>
      </trkpt>
      <trkpt lat="44.40406" lon="7.03979">
        <ele>2087.15917792</ele>
        <time>2020-07-11T12:31:43Z</time>
      </trkpt>
      <trkpt lat="44.40398" lon="7.03918">
        <ele>2098.15673532</ele>
        <time>2020-07-11T12:32:40Z</time>
      </trkpt>
      <trkpt lat="44.4039" lon="7.03857">
        <ele>2099.1542718</ele>
        <time>2020-07-11T12:33:49Z</time>
      </trkpt>
      <trkpt lat="44.40399" lon="7.03797">
        <ele>2110.1518722</ele>
        <time>2020-07-11T12:35:43Z</time>
      </trkpt>
      <trkpt lat="44.40422" lon="7.03743">
        <ele>2113.14972844</ele>
        <time>2020-07-11T12:36:43Z</time>
      </trkpt>
      <trkpt lat="44.40441" lon="7.03687">
        <ele>2117.1474712</ele>
        <time>2020-07-11T12:37:45Z</time>
      </trkpt>
      <trkpt lat="44.40476" lon="7.03648">
        <ele>2128.14589892</ele>
        <time>2020-07-11T12:38:51Z</time>
      </trkpt>
      <trkpt lat="44.40487" lon="7.03588">
        <ele>2137.14352988</ele>
        <time>2020-07-11T12:40:40Z</time>
      </trkpt>
      <trkpt lat="44.40495" lon="7.03527">
        <ele>2148.14108896</ele>
        <time>2020-07-11T12:47:07Z</time>
      </trkpt>
      <trkpt lat="44.40505" lon="7.03468">
        <ele>2154.1387166</ele>
        <time>2020-07-11T12:48:23Z</time>
      </trkpt>
      <trkpt lat="44.40496" lon="7.03407">
        <ele>2170.13626636</ele>
        <time>2020-07-11T12:49:33Z</time>
      </trkpt>
      <trkpt lat="44.40513" lon="7.03349">
        <ele>2177.13396732</ele>
        <time>2020-07-11T12:50:50Z</time>
      </trkpt>
      <trkpt lat="44.40533" lon="7.03293">
        <ele>2186.13170672</ele>
        <time>2020-07-11T12:51:46Z</time>
      </trkpt>
      <trkpt lat="44.40547" lon="7.03234">
        <ele>2186.12934252</ele>
        <time>2020-07-11T12:53:58Z</time>
      </trkpt>
      <trkpt lat="44.40539" lon="7.03111">
        <ele>2186.12443596</ele>
        <time>2020-07-11T12:55:44Z</time>
      </trkpt>
      <trkpt lat="44.40534" lon="7.03049">
        <ele>2205.12196252</ele>
        <time>2020-07-11T12:57:17Z</time>
      </trkpt>
      <trkpt lat="44.40576" lon="7.03028">
        <ele>2204.12113504</ele>
        <time>2020-07-11T12:58:26Z</time>
      </trkpt>
      <trkpt lat="44.4062" lon="7.03038">
        <ele>2220.12150596</ele>
        <time>2020-07-11T12:59:49Z</time>
      </trkpt>
      <trkpt lat="44.40603" lon="7.0298">
        <ele>2225.11921496</ele>
        <time>2020-07-11T13:02:25Z</time>
      </trkpt>
      <trkpt lat="44.40595" lon="7.02952">
        <ele>2228.11807488</ele>
        <time>2020-07-11T13:02:47Z</time>
      </trkpt>
      <trkpt lat="44.4058" lon="7.02895">
        <ele>2233.11579448</ele>
        <time>2020-07-11T13:03:40Z</time>
      </trkpt>
      <trkpt lat="44.40563" lon="7.02837">
        <ele>2238.1134836</ele>
        <time>2020-07-11T13:04:28Z</time>
      </trkpt>
      <trkpt lat="44.40552" lon="7.02776">
        <ele>2240.11104464</ele>
        <time>2020-07-11T13:05:22Z</time>
      </trkpt>
      <trkpt lat="44.40559" lon="7.02718">
        <ele>2242.10871148</ele>
        <time>2020-07-11T13:06:18Z</time>
      </trkpt>
      <trkpt lat="44.40565" lon="7.02657">
        <ele>2253.10626112</ele>
        <time>2020-07-11T13:07:05Z</time>
      </trkpt>
      <trkpt lat="44.40576" lon="7.02596">
        <ele>2252.10384276</ele>
        <time>2020-07-11T13:07:57Z</time>
      </trkpt>
      <trkpt lat="44.40597" lon="7.02541">
        <ele>2259.10163464</ele>
        <time>2020-07-11T13:08:46Z</time>
      </trkpt>
      <trkpt lat="44.40618" lon="7.02486">
        <ele>2259.0994544</ele>
        <time>2020-07-11T13:10:29Z</time>
      </trkpt>
      <trkpt lat="44.40638" lon="7.02432">
        <ele>2262.09728868</ele>
        <time>2020-07-11T13:11:14Z</time>
      </trkpt>
      <trkpt lat="44.40655" lon="7.02375">
        <ele>2264.0949816</ele>
        <time>2020-07-11T13:12:16Z</time>
      </trkpt>
      <trkpt lat="44.40674" lon="7.02319">
        <ele>2270.09274648</ele>
        <time>2020-07-11T13:13:05Z</time>
      </trkpt>
      <trkpt lat="44.40687" lon="7.02259">
        <ele>2281.0903394</ele>
        <time>2020-07-11T13:13:57Z</time>
      </trkpt>
      <trkpt lat="44.40687" lon="7.02196">
        <ele>2285.0878308</ele>
        <time>2020-07-11T13:14:52Z</time>
      </trkpt>
      <trkpt lat="44.40686" lon="7.02134">
        <ele>2289.08535036</ele>
        <time>2020-07-11T13:15:41Z</time>
      </trkpt>
      <trkpt lat="44.40675" lon="7.02074">
        <ele>2290.0829708</ele>
        <time>2020-07-11T13:20:39Z</time>
      </trkpt>
      <trkpt lat="44.4069" lon="7.02015">
        <ele>2290.08061352</ele>
        <time>2020-07-11T13:21:35Z</time>
      </trkpt>
      <trkpt lat="44.40681" lon="7.01955">
        <ele>2293.07818</ele>
        <time>2020-07-11T13:22:26Z</time>
      </trkpt>
      <trkpt lat="44.40663" lon="7.01898">
        <ele>2294.07592048</ele>
        <time>2020-07-11T13:23:04Z</time>
      </trkpt>
      <trkpt lat="44.40663" lon="7.01837">
        <ele>2292.0734978</ele>
        <time>2020-07-11T13:23:51Z</time>
      </trkpt>
      <trkpt lat="44.40675" lon="7.01778">
        <ele>2290.07112068</ele>
        <time>2020-07-11T13:24:27Z</time>
      </trkpt>
      <trkpt lat="44.40673" lon="7.01715">
        <ele>2293.06861492</ele>
        <time>2020-07-11T13:26:03Z</time>
      </trkpt>
      <trkpt lat="44.40679" lon="7.01654">
        <ele>2293.0661744</ele>
        <time>2020-07-11T13:26:47Z</time>
      </trkpt>
      <trkpt lat="44.407" lon="7.016">
        <ele>2293.0639946</ele>
        <time>2020-07-11T13:27:30Z</time>
      </trkpt>
      <trkpt lat="44.40684" lon="7.01542">
        <ele>2298.06169728</ele>
        <time>2020-07-11T13:28:14Z</time>
      </trkpt>
      <trkpt lat="44.40668" lon="7.01485">
        <ele>2299.059389</ele>
        <time>2020-07-11T13:28:58Z</time>
      </trkpt>
      <trkpt lat="44.40675" lon="7.01423">
        <ele>2312.05693748</ele>
        <time>2020-07-11T13:30:32Z</time>
      </trkpt>
      <trkpt lat="44.40698" lon="7.01371">
        <ele>2318.05485104</ele>
        <time>2020-07-11T13:31:38Z</time>
      </trkpt>
      <trkpt lat="44.40722" lon="7.0132">
        <ele>2326.05278748</ele>
        <time>2020-07-11T13:32:43Z</time>
      </trkpt>
      <trkpt lat="44.40764" lon="7.013">
        <ele>2333.05200032</ele>
        <time>2020-07-11T13:33:42Z</time>
      </trkpt>
      <trkpt lat="44.40806" lon="7.01278">
        <ele>2332.05109924</ele>
        <time>2020-07-11T13:34:28Z</time>
      </trkpt>
      <trkpt lat="44.40845" lon="7.0125">
        <ele>2335.04999712</ele>
        <time>2020-07-11T13:36:46Z</time>
      </trkpt>
      <trkpt lat="44.40889" lon="7.01245">
        <ele>2333.04978452</ele>
        <time>2020-07-11T13:37:37Z</time>
      </trkpt>
      <trkpt lat="44.40925" lon="7.01211">
        <ele>2336.04844708</ele>
        <time>2020-07-11T13:41:34Z</time>
      </trkpt>
      <trkpt lat="44.40909" lon="7.01209">
        <ele>2277.04835956</ele>
        <time>2020-07-11T13:42:56Z</time>
      </trkpt>
      <trkpt lat="44.40918" lon="7.01224">
        <ele>2333.04897776</ele>
        <time>2020-07-11T13:59:30Z</time>
      </trkpt>
      <trkpt lat="44.40918" lon="7.01224">
        <ele>2333.04897776</ele>
        <time>2020-07-11T14:01:09Z</time>
      </trkpt>
    </trkseg>
  </trk>
</gpx>